Time;durP1;ratioP1;P1;durP2;ratioP2;P2;SDS_P1;SDS_P2;PMS_P1;PMS_P2;Temp;Humidity;BMP_temperature;BMP_pressure;BME280_temperature;BME280_humidity;BME280_pressure;Samples;Min_cycle;Max_cycle;Signal;HPM_P1;HPM_P2
2022/10/03 00:01:35;;;;;;;17.17;3.28;;;11.30;99.90;;;;;;6042558;23;20018;-84
2022/10/03 00:04:27;;;;;;;16.20;3.15;;;11.30;99.90;;;;;;6067363;23;20015;-84
2022/10/03 00:07:15;;;;;;;13.63;3.10;;;11.30;99.90;;;;;;6043352;23;20018;-84
2022/10/03 00:09:47;;;;;;;15.80;2.97;;;11.30;99.90;;;;;;6066686;23;20018;-84
2022/10/03 00:12:46;;;;;;;13.10;2.70;;;11.40;99.90;;;;;;6066518;23;20787;-84
2022/10/03 00:15:20;;;;;;;14.25;3.03;;;11.30;99.90;;;;;;6042458;23;20589;-84
2022/10/03 00:17:55;;;;;;;17.58;3.10;;;11.30;99.90;;;;;;6067363;23;20018;-84
2022/10/03 00:20:45;;;;;;;15.02;3.35;;;11.30;99.90;;;;;;6066047;23;20256;-84
2022/10/03 00:23:19;;;;;;;16.33;2.97;;;11.30;99.90;;;;;;6042154;23;20048;-84
2022/10/03 00:25:44;;;;;;;15.80;2.90;;;11.30;99.90;;;;;;6067089;23;20021;-84
2022/10/03 00:28:23;;;;;;;14.43;3.15;;;11.40;99.90;;;;;;6043230;23;20018;-84
2022/10/03 00:31:08;;;;;;;13.77;3.03;;;11.70;99.90;;;;;;6064114;23;20037;-84
2022/10/03 00:33:39;;;;;;;14.85;2.90;;;11.40;99.90;;;;;;6043300;23;20018;-84
2022/10/03 00:36:41;;;;;;;16.95;3.42;;;11.50;99.90;;;;;;6066579;23;20456;-84
2022/10/03 00:39:33;;;;;;;17.95;2.90;;;11.50;99.90;;;;;;6043337;23;20452;-85
2022/10/03 00:42:36;;;;;;;18.98;2.83;;;11.70;99.90;;;;;;6042286;23;20014;-84
2022/10/03 00:45:30;;;;;;;18.23;3.65;;;11.60;99.90;;;;;;6066517;23;20400;-84
2022/10/03 00:48:33;;;;;;;16.25;2.67;;;11.60;99.90;;;;;;6067613;23;20072;-84
2022/10/03 00:51:06;;;;;;;16.48;2.70;;;11.70;99.90;;;;;;6043349;23;20452;-84
2022/10/03 00:53:57;;;;;;;12.38;2.60;;;11.70;99.90;;;;;;6066004;23;20053;-84
2022/10/03 00:56:33;;;;;;;16.63;2.90;;;11.70;99.90;;;;;;6043064;23;20077;-84
2022/10/03 00:59:25;;;;;;;13.32;2.50;;;11.80;99.90;;;;;;6064279;23;20061;-84
2022/10/03 01:01:51;;;;;;;13.18;2.40;;;11.80;99.90;;;;;;6042896;23;20046;-84
2022/10/03 01:05:01;;;;;;;14.75;2.70;;;11.80;99.90;;;;;;6064076;23;20015;-84
2022/10/03 01:08:15;;;;;;;12.98;2.65;;;11.80;99.90;;;;;;5989541;23;20352;-85
2022/10/03 01:10:49;;;;;;;14.57;2.80;;;11.80;99.90;;;;;;6012160;23;20081;-84
2022/10/03 01:13:36;;;;;;;13.75;2.70;;;11.80;99.90;;;;;;6041233;23;20415;-84
2022/10/03 01:16:38;;;;;;;12.18;2.40;;;11.90;99.90;;;;;;6042075;23;20030;-84
2022/10/03 01:19:25;;;;;;;17.45;3.00;;;11.90;99.90;;;;;;6042935;23;20010;-85
2022/10/03 01:22:27;;;;;;;15.80;3.05;;;11.90;99.90;;;;;;6043201;23;20345;-85
2022/10/03 01:25:15;;;;;;;14.63;2.40;;;11.90;99.90;;;;;;6066270;23;20046;-84
2022/10/03 01:30:50;;;;;;;10.63;2.55;;;11.90;99.90;;;;;;6065817;23;20110;-84
2022/10/03 01:33:52;;;;;;;15.10;2.83;;;11.90;99.90;;;;;;6066046;23;20029;-84
2022/10/03 01:36:32;;;;;;;11.30;2.40;;;11.90;99.90;;;;;;6042099;23;20018;-84
2022/10/03 01:39:08;;;;;;;12.98;2.72;;;11.90;99.90;;;;;;6067086;23;20018;-84
2022/10/03 01:41:59;;;;;;;12.70;2.13;;;11.90;99.90;;;;;;6043068;23;20566;-84
2022/10/03 01:45:12;;;;;;;15.13;2.47;;;11.90;99.90;;;;;;6042170;23;20500;-84
2022/10/03 01:47:51;;;;;;;12.75;2.50;;;11.80;99.90;;;;;;6042881;23;20087;-84
2022/10/03 01:50:56;;;;;;;12.77;2.78;;;11.80;99.90;;;;;;6066584;23;20222;-84
2022/10/03 01:53:52;;;;;;;14.30;2.95;;;11.80;99.90;;;;;;6041843;23;20412;-84
2022/10/03 01:56:43;;;;;;;15.82;2.72;;;11.70;99.90;;;;;;5971431;23;20015;-85
2022/10/03 01:59:19;;;;;;;14.70;2.47;;;11.80;99.90;;;;;;6041884;23;20022;-84
2022/10/03 02:01:50;;;;;;;17.35;2.72;;;11.70;99.90;;;;;;6042755;23;20089;-84
2022/10/03 02:04:34;;;;;;;9.23;1.98;;;11.70;99.90;;;;;;6041120;23;20021;-84
2022/10/03 02:07:19;;;;;;;11.80;2.22;;;11.80;99.90;;;;;;6042225;23;20026;-84
2022/10/03 02:10:06;;;;;;;17.35;2.53;;;11.80;99.90;;;;;;6044452;23;20469;-84
2022/10/03 02:12:45;;;;;;;12.45;2.20;;;11.80;99.90;;;;;;6044627;23;20102;-85
2022/10/03 02:15:19;;;;;;;13.07;2.35;;;11.80;99.90;;;;;;6043874;23;20018;-85
2022/10/03 02:18:33;;;;;;;13.73;2.55;;;11.80;99.90;;;;;;6043313;23;20078;-84
2022/10/03 02:21:28;;;;;;;13.52;2.40;;;11.70;99.90;;;;;;5990667;23;20021;-84
2022/10/03 02:24:03;;;;;;;13.18;2.63;;;11.70;99.90;;;;;;6040617;23;20111;-84
2022/10/03 02:27:06;;;;;;;14.70;2.88;;;11.70;99.90;;;;;;6043528;23;20010;-84
2022/10/03 02:30:17;;;;;;;14.65;2.45;;;11.70;99.90;;;;;;6068038;23;20348;-84
2022/10/03 02:33:37;;;;;;;16.35;2.80;;;11.70;99.90;;;;;;6043681;23;20015;-84
2022/10/03 02:36:30;;;;;;;13.95;2.47;;;11.60;99.90;;;;;;5989246;23;20461;-84
2022/10/03 02:39:22;;;;;;;14.77;2.70;;;11.60;99.90;;;;;;6043217;23;20022;-84
2022/10/03 02:42:30;;;;;;;11.38;2.47;;;11.70;99.90;;;;;;6044065;23;20019;-84
2022/10/03 02:45:45;;;;;;;15.32;2.83;;;11.70;99.90;;;;;;6044364;23;20156;-85
2022/10/03 02:48:23;;;;;;;15.73;2.80;;;11.70;99.90;;;;;;6065809;23;20010;-84
2022/10/03 02:51:13;;;;;;;15.45;2.63;;;11.70;99.90;;;;;;6044252;23;20096;-84
2022/10/03 02:53:41;;;;;;;12.90;2.70;;;11.70;99.90;;;;;;6043879;23;20468;-84
2022/10/03 02:56:32;;;;;;;13.77;2.58;;;11.70;99.90;;;;;;6043583;23;20202;-84
2022/10/03 02:59:03;;;;;;;15.80;2.70;;;11.70;99.90;;;;;;6067615;23;20058;-84
2022/10/03 03:02:01;;;;;;;14.13;2.55;;;11.80;99.90;;;;;;6043821;23;20014;-84
2022/10/03 03:04:45;;;;;;;12.13;2.40;;;11.80;99.90;;;;;;6042017;23;20018;-84
2022/10/03 03:07:21;;;;;;;13.25;2.30;;;11.80;99.90;;;;;;6043275;23;20050;-84
2022/10/03 03:09:57;;;;;;;10.80;2.13;;;11.80;99.90;;;;;;6067057;23;20210;-84
2022/10/03 03:12:26;;;;;;;15.02;2.50;;;11.80;99.90;;;;;;6043276;23;20337;-84
2022/10/03 03:15:23;;;;;;;15.18;2.50;;;11.90;99.90;;;;;;6067551;23;20021;-84
2022/10/03 03:18:14;;;;;;;17.70;2.67;;;11.90;99.90;;;;;;6042848;23;20014;-84
2022/10/03 03:21:05;;;;;;;12.75;2.50;;;11.90;99.90;;;;;;6043479;23;20010;-84
2022/10/03 03:23:40;;;;;;;13.48;2.75;;;11.90;99.90;;;;;;6043738;23;20014;-84
2022/10/03 03:26:31;;;;;;;14.30;3.10;;;11.90;99.90;;;;;;6044206;23;20049;-84
2022/10/03 03:29:09;;;;;;;14.57;2.85;;;11.90;99.90;;;;;;6042636;23;20345;-84
2022/10/03 03:32:07;;;;;;;13.88;3.03;;;11.90;99.90;;;;;;6043185;23;20018;-84
2022/10/03 03:34:42;;;;;;;12.88;3.03;;;11.90;99.90;;;;;;6043093;23;20022;-84
2022/10/03 03:37:31;;;;;;;16.33;3.08;;;11.90;99.90;;;;;;6067442;23;20018;-85
2022/10/03 03:40:22;;;;;;;13.50;3.67;;;11.90;99.90;;;;;;5977815;23;20014;-85
2022/10/03 03:43:14;;;;;;;13.75;2.83;;;11.90;99.90;;;;;;6043038;23;20081;-83
2022/10/03 03:45:59;;;;;;;18.23;3.53;;;11.80;99.90;;;;;;6067497;23;20021;-84
2022/10/03 03:48:49;;;;;;;16.50;2.85;;;11.80;99.90;;;;;;6042448;23;20093;-85
2022/10/03 03:51:55;;;;;;;15.68;3.05;;;11.80;99.90;;;;;;6043469;23;20096;-84
2022/10/03 03:54:45;;;;;;;19.27;3.05;;;11.80;99.90;;;;;;5902143;24;20031;-84
2022/10/03 03:57:25;;;;;;;14.85;3.00;;;11.80;99.90;;;;;;6037980;23;20085;-84
2022/10/03 04:00:19;;;;;;;15.23;3.10;;;11.80;99.90;;;;;;6042902;23;20024;-84
2022/10/03 04:03:21;;;;;;;15.27;2.72;;;11.80;99.90;;;;;;6066897;23;20015;-84
2022/10/03 04:06:11;;;;;;;11.82;2.70;;;11.80;99.90;;;;;;6067155;23;20494;-84
2022/10/03 04:09:15;;;;;;;11.15;2.70;;;11.90;99.90;;;;;;6042003;23;20019;-84
2022/10/03 04:11:48;;;;;;;11.00;2.40;;;11.90;99.90;;;;;;6043301;23;20022;-84
2022/10/03 04:14:55;;;;;;;14.25;2.50;;;11.90;99.90;;;;;;6042194;23;20018;-84
2022/10/03 04:20:57;;;;;;;14.65;2.75;;;11.80;99.90;;;;;;6066811;23;20074;-84
2022/10/03 04:23:43;;;;;;;11.98;2.85;;;11.80;99.90;;;;;;6042360;23;20018;-84
2022/10/03 04:26:38;;;;;;;14.38;3.00;;;11.80;99.90;;;;;;6067356;23;20058;-84
2022/10/03 04:29:29;;;;;;;15.82;3.17;;;11.80;99.90;;;;;;6042913;23;20275;-84
2022/10/03 04:32:16;;;;;;;18.58;3.65;;;11.80;99.90;;;;;;6042889;23;20468;-84
2022/10/03 04:35:02;;;;;;;17.30;2.83;;;11.70;99.90;;;;;;6066480;23;20026;-84
2022/10/03 04:37:31;;;;;;;11.15;3.03;;;11.80;99.90;;;;;;6066959;23;20014;-84
2022/10/03 04:40:15;;;;;;;15.68;2.85;;;11.70;99.90;;;;;;6065886;23;20018;-84
2022/10/03 04:42:57;;;;;;;18.95;2.67;;;11.70;99.90;;;;;;6042181;23;20014;-84
2022/10/03 04:45:52;;;;;;;16.30;3.45;;;11.60;99.90;;;;;;6041533;23;20010;-84
2022/10/03 04:48:45;;;;;;;14.00;2.80;;;11.60;99.90;;;;;;6042496;23;20453;-84
2022/10/03 04:51:28;;;;;;;16.83;2.37;;;11.60;99.90;;;;;;6067250;23;20089;-84
2022/10/03 04:53:56;;;;;;;13.70;2.70;;;11.80;99.90;;;;;;6042789;23;20329;-84
2022/10/03 04:56:49;;;;;;;12.43;2.30;;;11.60;99.90;;;;;;6065840;23;20022;-84
2022/10/03 04:59:36;;;;;;;13.43;2.33;;;11.60;99.90;;;;;;6042948;23;20025;-84
2022/10/03 05:02:15;;;;;;;11.82;2.55;;;11.60;99.90;;;;;;6042285;23;20024;-84
2022/10/03 05:04:56;;;;;;;13.57;2.45;;;12.80;99.90;;;;;;6041925;23;20523;-84
2022/10/03 05:07:40;;;;;;;13.45;2.63;;;11.50;99.90;;;;;;6041181;23;20037;-84
2022/10/03 05:10:34;;;;;;;12.48;2.13;;;11.70;99.90;;;;;;6066559;23;20043;-84
2022/10/03 05:13:31;;;;;;;15.32;2.97;;;11.50;99.90;;;;;;6038891;23;20014;-84
2022/10/03 05:15:58;;;;;;;10.55;2.35;;;11.50;99.90;;;;;;6062775;23;20018;-84
2022/10/03 05:19:02;;;;;;;13.48;2.17;;;11.40;99.90;;;;;;6039967;23;20073;-83
2022/10/03 05:21:38;;;;;;;10.52;2.20;;;11.50;99.90;;;;;;6044237;23;20015;-84
2022/10/03 05:24:25;;;;;;;17.08;2.50;;;11.40;99.90;;;;;;6042021;23;20088;-84
2022/10/03 05:27:00;;;;;;;13.45;2.28;;;11.40;99.90;;;;;;6066671;23;20021;-84
2022/10/03 05:29:58;;;;;;;12.25;2.53;;;11.40;99.90;;;;;;6040947;23;20026;-84
2022/10/03 05:32:40;;;;;;;11.45;2.17;;;11.40;99.90;;;;;;5919510;23;20409;-84
2022/10/03 05:35:51;;;;;;;13.48;2.30;;;11.30;99.90;;;;;;6067254;23;20448;-84
2022/10/03 05:38:33;;;;;;;10.65;2.00;;;11.30;99.90;;;;;;6035053;23;20018;-84
2022/10/03 05:41:01;;;;;;;10.73;2.30;;;11.30;99.90;;;;;;6042257;23;20456;-83
2022/10/03 05:43:57;;;;;;;11.73;2.60;;;11.20;99.90;;;;;;6041420;23;20015;-84
2022/10/03 05:47:01;;;;;;;11.75;2.30;;;11.20;99.90;;;;;;6067555;23;20022;-84
2022/10/03 05:49:42;;;;;;;14.25;3.00;;;11.20;99.90;;;;;;5997471;23;20018;-84
2022/10/03 05:52:46;;;;;;;11.20;2.38;;;11.20;99.90;;;;;;6069083;23;20010;-84
2022/10/03 05:55:26;;;;;;;9.88;2.00;;;11.20;99.90;;;;;;6068563;23;20050;-84
2022/10/03 05:58:08;;;;;;;13.90;2.20;;;11.20;99.90;;;;;;6044891;23;20018;-84
2022/10/03 06:00:36;;;;;;;10.20;2.00;;;11.20;99.90;;;;;;6067988;23;20111;-84
2022/10/03 06:03:40;;;;;;;11.35;2.15;;;11.20;99.90;;;;;;6045038;23;20014;-84
2022/10/03 06:06:34;;;;;;;11.57;2.22;;;11.20;99.90;;;;;;6069169;23;20461;-84
2022/10/03 06:09:25;;;;;;;14.15;2.58;;;11.20;99.90;;;;;;5984873;23;20015;-84
2022/10/03 06:12:06;;;;;;;11.50;2.60;;;11.20;99.90;;;;;;6066171;23;20398;-84
2022/10/03 06:15:13;;;;;;;14.73;2.35;;;11.20;99.90;;;;;;6068070;23;20048;-84
2022/10/03 06:18:10;;;;;;;12.85;2.90;;;11.20;99.90;;;;;;6043648;23;20014;-84
2022/10/03 06:20:38;;;;;;;17.85;2.95;;;11.20;99.90;;;;;;6069285;23;20220;-84
2022/10/03 06:23:25;;;;;;;15.98;3.30;;;11.20;99.90;;;;;;6044460;23;20033;-84
2022/10/03 06:25:59;;;;;;;10.10;2.35;;;11.20;99.90;;;;;;6037762;23;20018;-86
2022/10/03 06:29:10;;;;;;;11.90;2.60;;;11.20;99.90;;;;;;6066309;23;20018;-86
2022/10/03 06:31:51;;;;;;;16.88;3.05;;;11.20;99.90;;;;;;5988405;23;20109;-86
2022/10/03 06:34:35;;;;;;;14.35;2.92;;;11.20;99.90;;;;;;6042370;23;20014;-86
2022/10/03 06:37:07;;;;;;;13.43;2.63;;;11.30;99.90;;;;;;6065302;23;20014;-86
2022/10/03 06:40:00;;;;;;;12.38;2.50;;;11.30;99.90;;;;;;6041145;23;20448;-85
2022/10/03 06:42:41;;;;;;;12.98;2.90;;;11.40;99.90;;;;;;6065645;23;20025;-86
2022/10/03 06:45:40;;;;;;;12.98;2.90;;;11.40;99.90;;;;;;6041193;23;20093;-86
2022/10/03 06:48:16;;;;;;;15.35;3.63;;;11.50;99.90;;;;;;6041087;23;20018;-87
2022/10/03 06:50:59;;;;;;;15.15;3.60;;;11.50;99.90;;;;;;6040029;23;20078;-87
2022/10/03 06:53:32;;;;;;;;;;;11.60;99.90;;;;;;6063007;23;20026;-86
2022/10/03 06:56:22;;;;;;;10.07;2.95;;;11.60;99.90;;;;;;6040014;23;19973;-87
2022/10/03 06:59:13;;;;;;;15.55;3.58;;;11.70;99.90;;;;;;6040586;23;20041;-85
2022/10/03 07:01:59;;;;;;;15.23;3.22;;;11.70;99.90;;;;;;6040298;23;20014;-84
2022/10/03 07:04:57;;;;;;;11.57;2.92;;;11.90;99.90;;;;;;6039096;23;20105;-88
2022/10/03 07:08:01;;;;;;;18.50;3.45;;;11.80;99.90;;;;;;6064276;23;20340;-85
2022/10/03 07:10:50;;;;;;;12.35;3.30;;;11.90;99.90;;;;;;6065309;23;20022;-85
2022/10/03 07:13:22;;;;;;;11.20;2.78;;;12.00;99.90;;;;;;6036932;23;20026;-87
2022/10/03 07:16:16;;;;;;;14.38;3.58;;;12.10;99.90;;;;;;6040197;23;20069;-86
2022/10/03 07:19:05;;;;;;;12.90;2.88;;;12.10;99.90;;;;;;6040295;23;20085;-86
2022/10/03 07:21:49;;;;;;;16.67;3.80;;;12.20;99.90;;;;;;6020427;23;20018;-86
2022/10/03 07:24:48;;;;;;;17.30;3.10;;;12.30;99.90;;;;;;6064366;23;20014;-86
2022/10/03 07:27:39;;;;;;;11.15;2.80;;;12.40;99.90;;;;;;6064516;23;20357;-87
2022/10/03 07:30:18;;;;;;;14.73;3.08;;;12.50;99.90;;;;;;6063476;23;20100;-86
2022/10/03 07:33:06;;;;;;;18.05;3.20;;;12.60;99.90;;;;;;6040717;23;20019;-86
2022/10/03 07:39:14;;;;;;;13.40;3.03;;;12.80;99.90;;;;;;6064526;23;20030;-85
2022/10/03 07:41:59;;;;;;;13.55;3.05;;;12.90;99.90;;;;;;6038276;23;20014;-87
2022/10/03 07:45:02;;;;;;;14.20;2.47;;;13.00;99.90;;;;;;6041751;23;20050;-88
2022/10/03 07:47:44;;;;;;;15.27;3.17;;;13.00;99.90;;;;;;6040496;23;20372;-87
2022/10/03 07:50:43;;;;;;;11.20;2.88;;;13.10;99.90;;;;;;6039634;23;20014;-88
2022/10/03 07:53:23;;;;;;;15.20;3.33;;;13.30;99.90;;;;;;6063726;23;20022;-87
2022/10/03 07:56:15;;;;;;;13.75;3.08;;;13.40;99.90;;;;;;6039572;23;20086;-85
2022/10/03 07:58:58;;;;;;;15.13;2.90;;;14.00;99.90;;;;;;6039473;23;20018;-85
2022/10/03 08:01:53;;;;;;;13.15;2.63;;;12.90;99.90;;;;;;6040031;23;20369;-84
2022/10/03 08:04:56;;;;;;;11.70;2.20;;;13.70;99.90;;;;;;6038897;23;20014;-84
2022/10/03 08:07:57;;;;;;;12.15;2.75;;;13.80;99.90;;;;;;6040394;23;20022;-84
2022/10/03 08:10:41;;;;;;;16.13;3.40;;;13.90;99.90;;;;;;6045627;23;20046;-84
2022/10/03 08:13:55;;;;;;;11.23;2.75;;;14.00;99.90;;;;;;6065687;23;20470;-83
2022/10/03 08:16:45;;;;;;;12.25;2.67;;;14.10;99.90;;;;;;5900194;24;20607;-83
2022/10/03 08:19:47;;;;;;;10.23;2.60;;;14.20;99.90;;;;;;6061127;23;20050;-84
2022/10/03 08:22:51;;;;;;;11.32;2.40;;;14.40;99.90;;;;;;6065047;23;20088;-83
2022/10/03 08:25:28;;;;;;;12.40;2.55;;;14.40;99.90;;;;;;6042079;23;20022;-83
2022/10/03 08:28:19;;;;;;;11.93;2.10;;;14.50;99.90;;;;;;6067037;23;20053;-84
2022/10/03 08:31:17;;;;;;;10.68;2.42;;;14.60;99.90;;;;;;6042038;23;20073;-84
2022/10/03 08:33:55;;;;;;;10.93;2.55;;;14.80;99.90;;;;;;6066899;23;20263;-83
2022/10/03 08:36:49;;;;;;;11.15;2.00;;;14.80;99.90;;;;;;6067084;23;20120;-83
2022/10/03 08:39:36;;;;;;;9.45;2.08;;;14.90;99.90;;;;;;6067443;23;20544;-84
2022/10/03 08:42:14;;;;;;;12.05;2.25;;;15.00;99.90;;;;;;6066367;23;20029;-84
2022/10/03 08:44:44;;;;;;;11.63;2.40;;;15.10;99.90;;;;;;6066489;23;20030;-84
2022/10/03 08:47:47;;;;;;;14.43;2.25;;;15.10;99.90;;;;;;6042923;23;20353;-84
2022/10/03 08:50:39;;;;;;;9.35;1.95;;;15.20;99.90;;;;;;6066245;23;20543;-84
2022/10/03 08:53:43;;;;;;;12.15;2.22;;;15.30;99.90;;;;;;6066792;23;20015;-84
2022/10/03 08:56:13;;;;;;;11.93;2.13;;;15.30;99.90;;;;;;6042141;23;20054;-84
2022/10/03 08:58:57;;;;;;;11.50;2.10;;;15.40;99.90;;;;;;6066619;23;20073;-84
2022/10/03 09:01:41;;;;;;;11.07;2.30;;;15.50;99.90;;;;;;6066760;23;20094;-84
2022/10/03 09:04:38;;;;;;;9.60;1.80;;;15.50;99.90;;;;;;6065856;23;20014;-84
2022/10/03 09:07:09;;;;;;;10.95;1.98;;;15.60;99.90;;;;;;6064968;23;20097;-83
2022/10/03 09:09:57;;;;;;;10.32;2.10;;;15.70;99.90;;;;;;6065724;23;20021;-83
2022/10/03 09:12:31;;;;;;;10.20;2.33;;;15.70;99.90;;;;;;6065777;23;20022;-83
2022/10/03 09:15:00;;;;;;;10.00;1.92;;;15.80;99.90;;;;;;6066333;23;20448;-83
2022/10/03 09:17:35;;;;;;;10.52;2.50;;;15.80;99.90;;;;;;6067914;23;20026;-84
2022/10/03 09:20:15;;;;;;;9.88;1.95;;;15.80;99.90;;;;;;6068683;23;20019;-84
2022/10/03 09:22:56;;;;;;;9.32;2.17;;;15.80;99.90;;;;;;6045106;23;20069;-83
2022/10/03 09:25:57;;;;;;;11.25;2.08;;;15.90;99.90;;;;;;6068714;23;20018;-84
2022/10/03 09:28:41;;;;;;;10.02;1.95;;;15.90;99.90;;;;;;6067659;23;20018;-83
2022/10/03 09:31:32;;;;;;;10.98;2.20;;;15.90;99.90;;;;;;6068295;23;20102;-84
2022/10/03 09:34:04;;;;;;;11.18;1.95;;;16.00;99.90;;;;;;6054982;23;20022;-84
2022/10/03 09:36:48;;;;;;;11.55;2.47;;;16.00;99.90;;;;;;6066004;23;20011;-84
2022/10/03 09:39:51;;;;;;;8.23;1.60;;;16.10;99.90;;;;;;6068362;23;20026;-83
2022/10/03 09:42:37;;;;;;;8.90;1.63;;;16.10;99.90;;;;;;6068885;23;20026;-83
2022/10/03 09:45:09;;;;;;;10.40;2.00;;;16.30;99.90;;;;;;6055350;23;20174;-83
2022/10/03 09:47:52;;;;;;;10.75;2.00;;;16.20;99.90;;;;;;6067122;23;20015;-84
2022/10/03 09:50:27;;;;;;;7.38;1.73;;;16.30;99.90;;;;;;6067833;23;20018;-84
2022/10/03 09:53:31;;;;;;;9.27;1.77;;;16.30;99.90;;;;;;6068188;23;20087;-84
2022/10/03 09:56:02;;;;;;;;;;;16.30;99.90;;;;;;6069001;23;20423;-84
2022/10/03 09:58:52;;;;;;;9.13;2.38;;;16.30;99.90;;;;;;6068324;23;19966;-84
2022/10/03 10:01:31;;;;;;;12.50;2.00;;;16.40;99.90;;;;;;6067600;23;20018;-84
2022/10/03 10:04:34;;;;;;;8.15;2.00;;;16.50;99.90;;;;;;6068705;23;20014;-84
2022/10/03 10:07:25;;;;;;;11.02;1.90;;;16.50;99.90;;;;;;6068585;23;20434;-84
2022/10/03 10:09:53;;;;;;;7.50;1.60;;;16.60;99.90;;;;;;6067810;23;20085;-83
2022/10/03 10:12:50;;;;;;;9.88;1.98;;;16.50;99.90;;;;;;6068220;23;20015;-84
2022/10/03 10:15:21;;;;;;;8.10;1.52;;;16.50;99.90;;;;;;6067711;23;20523;-84
2022/10/03 10:18:18;;;;;;;8.45;1.90;;;16.50;99.90;;;;;;6067793;23;20077;-84
2022/10/03 10:21:08;;;;;;;9.13;1.92;;;16.60;99.90;;;;;;6066976;23;20527;-84
2022/10/03 10:23:45;;;;;;;9.68;2.03;;;16.70;99.90;;;;;;6067265;23;20444;-84
2022/10/03 10:26:44;;;;;;;8.40;1.90;;;16.60;99.90;;;;;;6068289;23;20025;-85
2022/10/03 10:29:35;;;;;;;9.77;2.00;;;16.60;99.90;;;;;;6066588;23;20080;-83
2022/10/03 10:32:04;;;;;;;10.05;2.17;;;16.60;99.90;;;;;;6067391;23;20061;-83
2022/10/03 10:34:48;;;;;;;11.45;2.33;;;16.70;99.90;;;;;;6066134;23;20018;-83
2022/10/03 10:37:43;;;;;;;8.27;2.03;;;16.70;99.90;;;;;;6044010;23;20021;-83
2022/10/03 10:40:46;;;;;;;8.35;1.52;;;16.80;99.90;;;;;;6043322;23;20449;-84
2022/10/03 10:43:43;;;;;;;8.88;1.70;;;16.90;99.90;;;;;;6067856;23;20025;-84
2022/10/03 10:46:37;;;;;;;9.85;1.90;;;17.00;99.90;;;;;;6066815;23;20333;-84
2022/10/03 10:49:49;;;;;;;10.93;2.10;;;17.00;99.90;;;;;;6025428;23;20046;-84
2022/10/03 10:52:20;;;;;;;8.63;2.10;;;17.00;99.90;;;;;;6043188;23;20021;-84
2022/10/03 10:54:55;;;;;;;8.65;1.73;;;17.10;99.90;;;;;;6064895;23;20472;-83
2022/10/03 10:57:23;;;;;;;6.07;1.48;;;17.90;99.90;;;;;;6066712;23;20025;-84
2022/10/03 11:00:01;;;;;;;8.02;1.70;;;17.20;99.90;;;;;;6044743;23;20073;-84
2022/10/03 11:03:04;;;;;;;10.25;2.10;;;17.20;99.90;;;;;;6068861;23;20018;-83
2022/10/03 11:05:41;;;;;;;;;;;17.20;99.90;;;;;;6068854;23;20015;-84
2022/10/03 11:08:18;;;;;;;7.18;1.55;;;17.20;99.90;;;;;;6068643;23;19917;-84
2022/10/03 11:11:07;;;;;;;10.10;1.63;;;17.20;99.90;;;;;;6041788;23;20022;-83
2022/10/03 11:14:04;;;;;;;10.73;1.98;;;17.30;99.90;;;;;;5971989;23;20010;-84
2022/10/03 11:16:48;;;;;;;5.97;1.42;;;17.20;99.90;;;;;;6066442;23;20093;-83
2022/10/03 11:19:42;;;;;;;7.82;1.83;;;17.30;99.90;;;;;;6066825;23;20041;-84
2022/10/03 11:22:45;;;;;;;9.95;1.70;;;17.30;99.90;;;;;;6067196;23;20067;-83
2022/10/03 11:25:32;;;;;;;8.32;1.77;;;17.40;99.90;;;;;;6066116;23;20037;-84
2022/10/03 11:28:29;;;;;;;8.88;1.80;;;17.60;99.90;;;;;;6042147;23;20352;-83
2022/10/03 11:31:48;;;;;;;8.43;1.67;;;17.70;99.90;;;;;;6065230;23;20085;-83
2022/10/03 11:34:45;;;;;;;9.55;1.98;;;17.80;99.90;;;;;;5950042;24;20695;-83
2022/10/03 11:37:13;;;;;;;5.40;1.63;;;17.80;99.90;;;;;;6041628;23;20026;-83
2022/10/03 11:39:54;;;;;;;10.93;1.80;;;17.70;99.90;;;;;;6066545;23;20014;-83
2022/10/03 11:42:43;;;;;;;10.32;1.90;;;17.70;99.90;;;;;;6042876;23;20014;-84
2022/10/03 11:45:38;;;;;;;8.65;1.67;;;17.60;99.90;;;;;;5971264;23;20042;-84
2022/10/03 11:48:31;;;;;;;7.30;1.92;;;17.50;99.90;;;;;;6042918;23;20021;-84
2022/10/03 11:51:17;;;;;;;;;;;17.50;99.90;;;;;;6066432;23;20285;-83
2022/10/03 11:54:17;;;;;;;8.95;1.80;;;17.40;99.90;;;;;;6065289;23;19936;-83
2022/10/03 11:56:51;;;;;;;7.97;1.55;;;17.40;99.90;;;;;;6041980;23;20053;-83
2022/10/03 11:59:47;;;;;;;9.85;1.75;;;17.50;99.90;;;;;;6042564;23;20014;-84
2022/10/03 12:02:21;;;;;;;9.27;1.80;;;17.50;99.90;;;;;;6042614;23;20015;-84
2022/10/03 12:04:58;;;;;;;9.77;1.80;;;17.50;99.90;;;;;;6040763;23;20381;-83
2022/10/03 12:10:51;;;;;;;8.93;1.98;;;17.50;99.90;;;;;;6006776;23;20521;-83
2022/10/03 12:13:34;;;;;;;9.13;1.70;;;17.50;99.90;;;;;;6060594;23;20381;-84
2022/10/03 12:16:01;;;;;;;7.85;1.73;;;17.40;99.90;;;;;;6041538;23;20014;-84
2022/10/03 12:18:41;;;;;;;9.25;1.80;;;17.40;99.90;;;;;;6041103;23;20334;-83
2022/10/03 12:21:10;;;;;;;9.32;1.60;;;17.40;99.90;;;;;;6042493;23;20025;-84
2022/10/03 12:23:57;;;;;;;9.32;1.70;;;17.30;99.90;;;;;;6042148;23;20226;-84
2022/10/03 12:26:52;;;;;;;10.27;1.65;;;17.30;99.90;;;;;;6066714;23;20389;-84
2022/10/03 12:29:20;;;;;;;6.53;1.48;;;17.30;99.90;;;;;;6042416;23;20030;-84
2022/10/03 12:32:11;;;;;;;6.00;1.48;;;17.40;99.90;;;;;;6065357;23;20042;-84
2022/10/03 12:34:48;;;;;;;7.88;1.70;;;17.50;99.90;;;;;;6064680;23;20033;-83
2022/10/03 12:37:26;;;;;;;8.93;1.70;;;17.50;99.90;;;;;;6042180;23;20202;-84
2022/10/03 12:40:04;;;;;;;5.40;1.45;;;17.50;99.90;;;;;;6043077;23;20017;-83
2022/10/03 12:42:54;;;;;;;6.88;1.40;;;17.60;99.90;;;;;;6042347;23;20010;-84
2022/10/03 12:45:42;;;;;;;9.48;1.90;;;17.60;99.90;;;;;;6040430;23;20449;-84
2022/10/03 12:48:46;;;;;;;7.47;1.75;;;17.70;99.90;;;;;;6040940;23;20290;-84
2022/10/03 12:51:36;;;;;;;9.45;2.03;;;17.70;99.90;;;;;;6066160;23;20393;-84
2022/10/03 12:54:34;;;;;;;8.15;1.80;;;17.80;99.90;;;;;;6042947;23;20021;-84
2022/10/03 12:57:12;;;;;;;7.50;1.85;;;17.70;99.90;;;;;;6041830;23;20026;-84
2022/10/03 13:00:19;;;;;;;6.70;1.63;;;17.80;99.90;;;;;;6066455;23;20014;-84
2022/10/03 13:03:06;;;;;;;7.68;1.48;;;17.80;99.90;;;;;;6051885;23;20014;-84
2022/10/03 13:06:10;;;;;;;7.53;1.80;;;17.80;99.90;;;;;;6042803;23;20594;-84
2022/10/03 13:08:54;;;;;;;;;;;17.90;99.90;;;;;;6066669;23;20014;-84
2022/10/03 13:11:56;;;;;;;8.75;1.77;;;18.00;99.90;;;;;;6065759;23;19944;-84
2022/10/03 13:14:39;;;;;;;9.63;1.65;;;18.20;99.90;;;;;;6042332;23;20033;-84
2022/10/03 13:17:45;;;;;;;7.50;1.47;;;18.20;99.90;;;;;;6040768;23;20050;-84
2022/10/03 13:20:29;;;;;;;6.05;1.30;;;18.20;99.90;;;;;;6066532;23;20200;-84
2022/10/03 13:23:08;;;;;;;5.63;1.40;;;18.20;99.90;;;;;;6042120;23;20069;-84
2022/10/03 13:25:49;;;;;;;6.15;1.52;;;18.10;99.90;;;;;;6042770;23;20010;-83
2022/10/03 13:28:30;;;;;;;5.78;1.40;;;18.10;99.90;;;;;;6066066;23;20010;-83
2022/10/03 13:31:23;;;;;;;8.23;1.60;;;18.10;99.90;;;;;;6066241;23;20441;-83
2022/10/03 13:33:56;;;;;;;7.53;1.40;;;17.90;99.90;;;;;;6042561;23;20483;-84
2022/10/03 13:36:31;;;;;;;7.03;1.75;;;17.70;99.90;;;;;;6040926;23;20464;-84
2022/10/03 13:38:58;;;;;;;7.93;1.58;;;17.60;99.90;;;;;;6042810;23;20014;-85
2022/10/03 13:41:45;;;;;;;7.55;1.60;;;17.50;99.90;;;;;;6066151;23;20014;-85
2022/10/03 13:44:18;;;;;;;8.23;1.42;;;17.40;99.90;;;;;;6042669;23;20021;-84
2022/10/03 13:46:55;;;;;;;6.75;1.67;;;17.40;99.90;;;;;;6041035;23;20014;-83
2022/10/03 13:49:34;;;;;;;4.93;1.27;;;17.40;99.90;;;;;;6041673;23;20022;-84
2022/10/03 13:52:01;;;;;;;7.20;1.38;;;17.50;99.90;;;;;;6042276;23;20015;-84
2022/10/03 13:54:48;;;;;;;6.97;1.42;;;17.50;99.90;;;;;;6041674;23;20021;-84
2022/10/03 13:57:26;;;;;;;6.45;1.50;;;17.50;99.90;;;;;;6040849;23;20022;-85
2022/10/03 14:00:06;;;;;;;6.38;1.50;;;17.60;99.90;;;;;;6042448;23;20037;-84
2022/10/03 14:03:00;;;;;;;7.57;1.73;;;17.70;99.90;;;;;;6042473;23;20019;-84
2022/10/03 14:05:54;;;;;;;8.40;1.50;;;17.70;99.90;;;;;;6066771;23;20089;-84
2022/10/03 14:09:19;;;;;;;8.82;1.83;;;17.60;99.90;;;;;;6066697;23;20105;-85
2022/10/03 14:12:05;;;;;;;7.20;1.60;;;17.60;99.90;;;;;;6016799;23;20018;-84
2022/10/03 14:15:02;;;;;;;9.45;1.77;;;17.50;99.90;;;;;;6043604;23;20129;-83
2022/10/03 14:17:34;;;;;;;10.93;1.90;;;17.50;99.90;;;;;;6067799;23;20352;-84
2022/10/03 14:20:19;;;;;;;9.55;2.05;;;17.50;99.90;;;;;;6043613;23;20068;-84
2022/10/03 14:22:56;;;;;;;7.68;1.70;;;17.40;99.90;;;;;;6068872;23;20015;-84
2022/10/03 14:25:25;;;;;;;6.00;1.75;;;17.30;99.90;;;;;;6067909;23;20364;-84
2022/10/03 14:27:59;;;;;;;9.75;1.80;;;17.20;99.90;;;;;;6043557;23;20014;-84
2022/10/03 14:30:35;;;;;;;8.07;1.73;;;17.20;99.90;;;;;;6042657;23;20022;-84
2022/10/03 14:33:23;;;;;;;9.55;1.77;;;17.20;99.90;;;;;;6043929;23;20452;-83
2022/10/03 14:36:05;;;;;;;7.78;1.73;;;17.30;99.90;;;;;;6066464;23;20014;-84